sensor_id;sensor_type;location;lat;lon;timestamp;temperature;humidity
79187;SHT31;68762;51.980;5.646;2023-10-31T00:01:14;13.5;75.2
79187;SHT31;68762;51.980;5.646;2023-10-31T00:03:42;13.4;75.0
79187;SHT31;68762;51.980;5.646;2023-10-31T00:06:13;13.4;75.2
79187;SHT31;68762;51.980;5.646;2023-10-31T00:08:41;13.4;75.1
79187;SHT31;68762;51.980;5.646;2023-10-31T00:11:10;13.4;75.2
79187;SHT31;68762;51.980;5.646;2023-10-31T00:13:38;13.3;75.2
79187;SHT31;68762;51.980;5.646;2023-10-31T00:16:08;13.3;74.7
79187;SHT31;68762;51.980;5.646;2023-10-31T00:18:36;13.3;74.6
79187;SHT31;68762;51.980;5.646;2023-10-31T00:21:05;13.3;74.4
79187;SHT31;68762;51.980;5.646;2023-10-31T00:23:33;13.3;74.1
79187;SHT31;68762;51.980;5.646;2023-10-31T00:26:02;13.2;74.5
79187;SHT31;68762;51.980;5.646;2023-10-31T00:28:31;13.2;74.5
79187;SHT31;68762;51.980;5.646;2023-10-31T00:30:59;13.2;74.7
79187;SHT31;68762;51.980;5.646;2023-10-31T00:33:30;13.2;74.7
79187;SHT31;68762;51.980;5.646;2023-10-31T00:35:58;13.1;74.4
79187;SHT31;68762;51.980;5.646;2023-10-31T00:38:28;13.1;74.6
79187;SHT31;68762;51.980;5.646;2023-10-31T00:40:56;13.1;74.6
79187;SHT31;68762;51.980;5.646;2023-10-31T00:43:27;13.1;74.4
79187;SHT31;68762;51.980;5.646;2023-10-31T00:45:55;13.1;74.3
79187;SHT31;68762;51.980;5.646;2023-10-31T00:48:26;13.1;74.5
79187;SHT31;68762;51.980;5.646;2023-10-31T00:50:54;13.0;74.8
79187;SHT31;68762;51.980;5.646;2023-10-31T00:53:24;13.0;75.0
79187;SHT31;68762;51.980;5.646;2023-10-31T00:55:53;13.0;75.3
79187;SHT31;68762;51.980;5.646;2023-10-31T00:58:21;13.0;75.3
79187;SHT31;68762;51.980;5.646;2023-10-31T01:00:50;13.0;75.6
79187;SHT31;68762;51.980;5.646;2023-10-31T01:03:18;13.0;75.9
79187;SHT31;68762;51.980;5.646;2023-10-31T01:05:47;12.9;76.2
79187;SHT31;68762;51.980;5.646;2023-10-31T01:08:15;12.9;76.5
79187;SHT31;68762;51.980;5.646;2023-10-31T01:10:45;12.9;76.4
79187;SHT31;68762;51.980;5.646;2023-10-31T01:13:14;12.9;76.6
79187;SHT31;68762;51.980;5.646;2023-10-31T01:15:43;12.9;76.8
79187;SHT31;68762;51.980;5.646;2023-10-31T01:18:11;12.9;77.1
79187;SHT31;68762;51.980;5.646;2023-10-31T01:20:39;12.9;77.1
79187;SHT31;68762;51.980;5.646;2023-10-31T01:23:10;12.9;76.9
79187;SHT31;68762;51.980;5.646;2023-10-31T01:25:39;12.9;76.6
79187;SHT31;68762;51.980;5.646;2023-10-31T01:28:07;12.9;76.7
79187;SHT31;68762;51.980;5.646;2023-10-31T01:30:35;12.9;76.8
79187;SHT31;68762;51.980;5.646;2023-10-31T01:33:04;12.9;76.6
79187;SHT31;68762;51.980;5.646;2023-10-31T01:35:33;12.9;76.7
79187;SHT31;68762;51.980;5.646;2023-10-31T01:38:01;12.9;76.9
79187;SHT31;68762;51.980;5.646;2023-10-31T01:40:30;12.9;76.9
79187;SHT31;68762;51.980;5.646;2023-10-31T01:43:00;12.9;77.1
79187;SHT31;68762;51.980;5.646;2023-10-31T01:45:29;12.9;77.1
79187;SHT31;68762;51.980;5.646;2023-10-31T01:47:58;12.9;77.0
79187;SHT31;68762;51.980;5.646;2023-10-31T01:50:27;12.9;76.8
79187;SHT31;68762;51.980;5.646;2023-10-31T01:52:56;12.9;77.0
79187;SHT31;68762;51.980;5.646;2023-10-31T01:55:26;12.9;77.1
79187;SHT31;68762;51.980;5.646;2023-10-31T01:57:56;12.9;77.2
79187;SHT31;68762;51.980;5.646;2023-10-31T02:00:26;12.9;77.2
79187;SHT31;68762;51.980;5.646;2023-10-31T02:02:55;12.9;77.3
79187;SHT31;68762;51.980;5.646;2023-10-31T02:05:24;12.9;77.1
79187;SHT31;68762;51.980;5.646;2023-10-31T02:07:57;13.0;77.0
79187;SHT31;68762;51.980;5.646;2023-10-31T02:10:25;13.0;76.8
79187;SHT31;68762;51.980;5.646;2023-10-31T02:12:53;13.0;76.6
79187;SHT31;68762;51.980;5.646;2023-10-31T02:15:22;13.0;76.6
79187;SHT31;68762;51.980;5.646;2023-10-31T02:17:50;13.0;76.7
79187;SHT31;68762;51.980;5.646;2023-10-31T02:20:19;13.0;76.6
79187;SHT31;68762;51.980;5.646;2023-10-31T02:22:47;13.0;76.7
79187;SHT31;68762;51.980;5.646;2023-10-31T02:25:19;13.0;76.8
79187;SHT31;68762;51.980;5.646;2023-10-31T02:27:47;13.0;76.9
79187;SHT31;68762;51.980;5.646;2023-10-31T02:30:16;13.0;77.0
79187;SHT31;68762;51.980;5.646;2023-10-31T02:32:44;13.0;77.1
79187;SHT31;68762;51.980;5.646;2023-10-31T02:35:15;13.0;77.4
79187;SHT31;68762;51.980;5.646;2023-10-31T02:37:44;13.0;77.5
79187;SHT31;68762;51.980;5.646;2023-10-31T02:40:13;13.0;77.6
79187;SHT31;68762;51.980;5.646;2023-10-31T02:42:44;13.0;77.7
79187;SHT31;68762;51.980;5.646;2023-10-31T02:45:13;12.9;77.8
79187;SHT31;68762;51.980;5.646;2023-10-31T02:47:41;12.9;78.1
79187;SHT31;68762;51.980;5.646;2023-10-31T02:50:10;12.9;78.2
79187;SHT31;68762;51.980;5.646;2023-10-31T02:52:38;12.9;78.3
79187;SHT31;68762;51.980;5.646;2023-10-31T02:55:07;12.8;78.5
79187;SHT31;68762;51.980;5.646;2023-10-31T02:57:36;12.8;78.3
79187;SHT31;68762;51.980;5.646;2023-10-31T03:00:08;12.8;78.5
79187;SHT31;68762;51.980;5.646;2023-10-31T03:02:36;12.8;78.8
79187;SHT31;68762;51.980;5.646;2023-10-31T03:05:05;12.8;78.8
79187;SHT31;68762;51.980;5.646;2023-10-31T03:07:34;12.8;79.0
79187;SHT31;68762;51.980;5.646;2023-10-31T03:10:03;12.8;78.9
79187;SHT31;68762;51.980;5.646;2023-10-31T03:12:31;12.8;78.8
79187;SHT31;68762;51.980;5.646;2023-10-31T03:15:00;12.8;78.6
79187;SHT31;68762;51.980;5.646;2023-10-31T03:17:31;12.8;78.7
79187;SHT31;68762;51.980;5.646;2023-10-31T03:19:59;12.8;78.6
79187;SHT31;68762;51.980;5.646;2023-10-31T03:22:28;12.8;78.4
79187;SHT31;68762;51.980;5.646;2023-10-31T03:24:56;12.8;78.5
79187;SHT31;68762;51.980;5.646;2023-10-31T03:27:26;12.8;78.6
79187;SHT31;68762;51.980;5.646;2023-10-31T03:29:55;12.8;78.6
79187;SHT31;68762;51.980;5.646;2023-10-31T03:32:23;12.8;78.1
79187;SHT31;68762;51.980;5.646;2023-10-31T03:34:53;12.8;78.3
79187;SHT31;68762;51.980;5.646;2023-10-31T03:37:21;12.8;78.6
79187;SHT31;68762;51.980;5.646;2023-10-31T03:39:50;12.8;78.6
79187;SHT31;68762;51.980;5.646;2023-10-31T03:42:18;12.8;78.4
79187;SHT31;68762;51.980;5.646;2023-10-31T03:44:47;12.8;78.2
79187;SHT31;68762;51.980;5.646;2023-10-31T03:47:15;12.8;78.2
79187;SHT31;68762;51.980;5.646;2023-10-31T03:49:45;12.8;77.9
79187;SHT31;68762;51.980;5.646;2023-10-31T03:52:14;12.8;78.0
79187;SHT31;68762;51.980;5.646;2023-10-31T03:54:42;12.8;77.9
79187;SHT31;68762;51.980;5.646;2023-10-31T03:57:11;12.8;78.1
79187;SHT31;68762;51.980;5.646;2023-10-31T03:59:39;12.8;78.1
79187;SHT31;68762;51.980;5.646;2023-10-31T04:02:08;12.8;78.0
79187;SHT31;68762;51.980;5.646;2023-10-31T04:04:36;12.8;78.1
79187;SHT31;68762;51.980;5.646;2023-10-31T04:07:05;12.8;78.1
79187;SHT31;68762;51.980;5.646;2023-10-31T04:09:33;12.8;78.0
79187;SHT31;68762;51.980;5.646;2023-10-31T04:12:02;12.8;78.0
79187;SHT31;68762;51.980;5.646;2023-10-31T04:14:30;12.8;78.1
79187;SHT31;68762;51.980;5.646;2023-10-31T04:16:59;12.8;78.2
79187;SHT31;68762;51.980;5.646;2023-10-31T04:19:27;12.7;78.2
79187;SHT31;68762;51.980;5.646;2023-10-31T04:21:58;12.7;78.3
79187;SHT31;68762;51.980;5.646;2023-10-31T04:24:26;12.7;78.4
79187;SHT31;68762;51.980;5.646;2023-10-31T04:26:55;12.7;78.5
79187;SHT31;68762;51.980;5.646;2023-10-31T04:29:23;12.7;78.7
79187;SHT31;68762;51.980;5.646;2023-10-31T04:31:52;12.7;79.0
79187;SHT31;68762;51.980;5.646;2023-10-31T04:34:20;12.7;79.1
79187;SHT31;68762;51.980;5.646;2023-10-31T04:36:49;12.7;79.4
79187;SHT31;68762;51.980;5.646;2023-10-31T04:39:17;12.8;79.2
79187;SHT31;68762;51.980;5.646;2023-10-31T04:41:46;12.8;79.2
79187;SHT31;68762;51.980;5.646;2023-10-31T04:44:16;12.8;79.0
79187;SHT31;68762;51.980;5.646;2023-10-31T04:46:47;12.8;78.8
79187;SHT31;68762;51.980;5.646;2023-10-31T04:49:15;12.9;78.2
79187;SHT31;68762;51.980;5.646;2023-10-31T04:51:44;12.9;77.9
79187;SHT31;68762;51.980;5.646;2023-10-31T04:54:12;12.9;78.0
79187;SHT31;68762;51.980;5.646;2023-10-31T04:56:41;12.9;77.8
79187;SHT31;68762;51.980;5.646;2023-10-31T04:59:09;12.9;77.9
79187;SHT31;68762;51.980;5.646;2023-10-31T05:01:38;12.9;77.7
79187;SHT31;68762;51.980;5.646;2023-10-31T05:04:07;12.9;77.6
79187;SHT31;68762;51.980;5.646;2023-10-31T05:06:37;12.9;77.2
79187;SHT31;68762;51.980;5.646;2023-10-31T05:09:07;12.9;77.2
79187;SHT31;68762;51.980;5.646;2023-10-31T05:11:36;12.9;76.9
79187;SHT31;68762;51.980;5.646;2023-10-31T05:14:08;12.9;77.0
79187;SHT31;68762;51.980;5.646;2023-10-31T05:16:47;12.9;76.8
79187;SHT31;68762;51.980;5.646;2023-10-31T05:19:16;12.9;76.8
79187;SHT31;68762;51.980;5.646;2023-10-31T05:21:44;12.9;76.6
79187;SHT31;68762;51.980;5.646;2023-10-31T05:24:13;12.9;77.0
79187;SHT31;68762;51.980;5.646;2023-10-31T05:26:41;12.9;77.0
79187;SHT31;68762;51.980;5.646;2023-10-31T05:29:10;12.9;76.8
79187;SHT31;68762;51.980;5.646;2023-10-31T05:31:39;12.8;76.7
79187;SHT31;68762;51.980;5.646;2023-10-31T05:34:09;12.8;77.0
79187;SHT31;68762;51.980;5.646;2023-10-31T05:36:38;12.8;76.9
79187;SHT31;68762;51.980;5.646;2023-10-31T05:39:06;12.8;76.8
79187;SHT31;68762;51.980;5.646;2023-10-31T05:41:35;12.8;76.5
79187;SHT31;68762;51.980;5.646;2023-10-31T05:44:04;12.8;76.4
79187;SHT31;68762;51.980;5.646;2023-10-31T05:46:37;12.8;76.3
79187;SHT31;68762;51.980;5.646;2023-10-31T05:49:06;12.8;76.3
79187;SHT31;68762;51.980;5.646;2023-10-31T05:51:35;12.8;76.1
79187;SHT31;68762;51.980;5.646;2023-10-31T05:54:04;12.8;76.0
79187;SHT31;68762;51.980;5.646;2023-10-31T05:56:35;12.7;76.1
79187;SHT31;68762;51.980;5.646;2023-10-31T05:59:03;12.7;75.7
79187;SHT31;68762;51.980;5.646;2023-10-31T06:01:32;12.7;75.7
79187;SHT31;68762;51.980;5.646;2023-10-31T06:04:00;12.7;75.9
79187;SHT31;68762;51.980;5.646;2023-10-31T06:06:31;12.7;75.6
79187;SHT31;68762;51.980;5.646;2023-10-31T06:09:00;12.7;75.7
79187;SHT31;68762;51.980;5.646;2023-10-31T06:11:31;12.7;75.5
79187;SHT31;68762;51.980;5.646;2023-10-31T06:14:00;12.7;75.5
79187;SHT31;68762;51.980;5.646;2023-10-31T06:16:29;12.7;75.9
79187;SHT31;68762;51.980;5.646;2023-10-31T06:18:59;12.7;75.9
79187;SHT31;68762;51.980;5.646;2023-10-31T06:21:28;12.7;75.8
79187;SHT31;68762;51.980;5.646;2023-10-31T06:23:56;12.6;75.6
79187;SHT31;68762;51.980;5.646;2023-10-31T06:26:24;12.6;75.9
79187;SHT31;68762;51.980;5.646;2023-10-31T06:28:53;12.6;76.2
79187;SHT31;68762;51.980;5.646;2023-10-31T06:31:21;12.6;76.3
79187;SHT31;68762;51.980;5.646;2023-10-31T06:33:50;12.6;76.3
79187;SHT31;68762;51.980;5.646;2023-10-31T06:36:19;12.6;76.5
79187;SHT31;68762;51.980;5.646;2023-10-31T06:38:47;12.6;76.9
79187;SHT31;68762;51.980;5.646;2023-10-31T06:41:16;12.6;76.9
79187;SHT31;68762;51.980;5.646;2023-10-31T06:43:44;12.6;77.0
79187;SHT31;68762;51.980;5.646;2023-10-31T06:46:13;12.6;76.9
79187;SHT31;68762;51.980;5.646;2023-10-31T06:48:41;12.6;76.9
79187;SHT31;68762;51.980;5.646;2023-10-31T06:51:10;12.6;77.1
79187;SHT31;68762;51.980;5.646;2023-10-31T06:53:39;12.6;77.2
79187;SHT31;68762;51.980;5.646;2023-10-31T06:56:08;12.6;77.1
79187;SHT31;68762;51.980;5.646;2023-10-31T06:58:36;12.6;77.3
79187;SHT31;68762;51.980;5.646;2023-10-31T07:01:05;12.6;77.3
79187;SHT31;68762;51.980;5.646;2023-10-31T07:03:34;12.6;77.2
79187;SHT31;68762;51.980;5.646;2023-10-31T07:06:02;12.6;77.2
79187;SHT31;68762;51.980;5.646;2023-10-31T07:08:31;12.6;77.3
79187;SHT31;68762;51.980;5.646;2023-10-31T07:10:59;12.6;77.4
79187;SHT31;68762;51.980;5.646;2023-10-31T07:13:28;12.6;77.3
79187;SHT31;68762;51.980;5.646;2023-10-31T07:15:56;12.5;77.4
79187;SHT31;68762;51.980;5.646;2023-10-31T07:18:25;12.5;77.5
79187;SHT31;68762;51.980;5.646;2023-10-31T07:20:53;12.5;77.7
79187;SHT31;68762;51.980;5.646;2023-10-31T07:23:22;12.5;77.6
79187;SHT31;68762;51.980;5.646;2023-10-31T07:25:50;12.5;77.5
79187;SHT31;68762;51.980;5.646;2023-10-31T07:28:19;12.5;77.5
79187;SHT31;68762;51.980;5.646;2023-10-31T07:30:47;12.5;77.6
79187;SHT31;68762;51.980;5.646;2023-10-31T07:33:16;12.5;77.7
79187;SHT31;68762;51.980;5.646;2023-10-31T07:35:45;12.5;77.9
79187;SHT31;68762;51.980;5.646;2023-10-31T07:38:13;12.5;78.0
79187;SHT31;68762;51.980;5.646;2023-10-31T07:40:43;12.5;78.2
79187;SHT31;68762;51.980;5.646;2023-10-31T07:43:11;12.5;78.3
79187;SHT31;68762;51.980;5.646;2023-10-31T07:45:40;12.5;78.5
79187;SHT31;68762;51.980;5.646;2023-10-31T07:48:08;12.5;78.3
79187;SHT31;68762;51.980;5.646;2023-10-31T07:50:37;12.5;78.2
79187;SHT31;68762;51.980;5.646;2023-10-31T07:53:07;12.5;78.1
79187;SHT31;68762;51.980;5.646;2023-10-31T07:55:36;12.5;78.2
79187;SHT31;68762;51.980;5.646;2023-10-31T07:58:04;12.5;78.6
79187;SHT31;68762;51.980;5.646;2023-10-31T08:00:33;12.6;78.8
79187;SHT31;68762;51.980;5.646;2023-10-31T08:03:02;12.6;79.3
79187;SHT31;68762;51.980;5.646;2023-10-31T08:05:30;12.6;79.6
79187;SHT31;68762;51.980;5.646;2023-10-31T08:07:59;12.6;79.7
79187;SHT31;68762;51.980;5.646;2023-10-31T08:10:28;12.7;79.4
79187;SHT31;68762;51.980;5.646;2023-10-31T08:12:56;12.7;79.2
79187;SHT31;68762;51.980;5.646;2023-10-31T08:15:25;12.8;79.0
79187;SHT31;68762;51.980;5.646;2023-10-31T08:17:53;12.8;78.3
79187;SHT31;68762;51.980;5.646;2023-10-31T08:20:22;12.8;78.9
79187;SHT31;68762;51.980;5.646;2023-10-31T08:22:52;12.9;78.8
79187;SHT31;68762;51.980;5.646;2023-10-31T08:25:21;12.9;78.3
79187;SHT31;68762;51.980;5.646;2023-10-31T08:27:50;13.0;78.2
79187;SHT31;68762;51.980;5.646;2023-10-31T08:30:19;13.0;78.1
79187;SHT31;68762;51.980;5.646;2023-10-31T08:32:48;13.1;77.8
79187;SHT31;68762;51.980;5.646;2023-10-31T08:35:16;13.1;77.4
79187;SHT31;68762;51.980;5.646;2023-10-31T08:37:47;13.2;77.1
79187;SHT31;68762;51.980;5.646;2023-10-31T08:40:15;13.2;77.0
79187;SHT31;68762;51.980;5.646;2023-10-31T08:42:44;13.2;77.1
79187;SHT31;68762;51.980;5.646;2023-10-31T08:45:12;13.3;77.3
79187;SHT31;68762;51.980;5.646;2023-10-31T08:47:41;13.3;77.1
79187;SHT31;68762;51.980;5.646;2023-10-31T08:50:10;13.3;76.6
79187;SHT31;68762;51.980;5.646;2023-10-31T08:52:40;13.3;76.9
79187;SHT31;68762;51.980;5.646;2023-10-31T08:55:09;13.4;77.0
79187;SHT31;68762;51.980;5.646;2023-10-31T08:57:39;13.4;77.5
79187;SHT31;68762;51.980;5.646;2023-10-31T09:00:08;13.5;78.2
79187;SHT31;68762;51.980;5.646;2023-10-31T09:02:37;13.5;77.1
79187;SHT31;68762;51.980;5.646;2023-10-31T09:05:06;13.6;76.9
79187;SHT31;68762;51.980;5.646;2023-10-31T09:07:35;13.6;77.0
79187;SHT31;68762;51.980;5.646;2023-10-31T09:10:03;13.6;77.1
79187;SHT31;68762;51.980;5.646;2023-10-31T09:12:32;13.7;76.8
79187;SHT31;68762;51.980;5.646;2023-10-31T09:15:01;13.7;76.7
79187;SHT31;68762;51.980;5.646;2023-10-31T09:17:29;13.8;76.4
79187;SHT31;68762;51.980;5.646;2023-10-31T09:19:58;13.8;76.1
79187;SHT31;68762;51.980;5.646;2023-10-31T09:22:27;13.9;76.1
79187;SHT31;68762;51.980;5.646;2023-10-31T09:24:55;13.9;76.4
79187;SHT31;68762;51.980;5.646;2023-10-31T09:27:24;13.9;76.7
79187;SHT31;68762;51.980;5.646;2023-10-31T09:29:53;13.9;76.2
79187;SHT31;68762;51.980;5.646;2023-10-31T09:32:21;14.0;76.7
79187;SHT31;68762;51.980;5.646;2023-10-31T09:34:50;14.0;76.1
79187;SHT31;68762;51.980;5.646;2023-10-31T09:37:18;14.0;75.6
79187;SHT31;68762;51.980;5.646;2023-10-31T09:39:47;14.1;75.8
79187;SHT31;68762;51.980;5.646;2023-10-31T09:42:15;14.1;75.8
79187;SHT31;68762;51.980;5.646;2023-10-31T09:44:45;14.1;75.9
79187;SHT31;68762;51.980;5.646;2023-10-31T09:47:15;14.2;76.7
79187;SHT31;68762;51.980;5.646;2023-10-31T09:49:44;14.2;76.2
79187;SHT31;68762;51.980;5.646;2023-10-31T09:52:13;14.2;75.6
79187;SHT31;68762;51.980;5.646;2023-10-31T09:54:42;14.3;75.2
79187;SHT31;68762;51.980;5.646;2023-10-31T09:57:12;14.3;74.4
79187;SHT31;68762;51.980;5.646;2023-10-31T09:59:41;14.3;75.3
79187;SHT31;68762;51.980;5.646;2023-10-31T10:02:09;14.4;74.8
79187;SHT31;68762;51.980;5.646;2023-10-31T10:04:38;14.4;74.7
79187;SHT31;68762;51.980;5.646;2023-10-31T10:07:06;14.4;75.0
79187;SHT31;68762;51.980;5.646;2023-10-31T10:09:38;14.4;75.4
79187;SHT31;68762;51.980;5.646;2023-10-31T10:12:09;14.5;74.7
79187;SHT31;68762;51.980;5.646;2023-10-31T10:14:39;14.5;74.7
79187;SHT31;68762;51.980;5.646;2023-10-31T10:17:16;14.6;74.6
79187;SHT31;68762;51.980;5.646;2023-10-31T10:19:45;14.6;74.1
79187;SHT31;68762;51.980;5.646;2023-10-31T10:22:13;14.6;73.7
79187;SHT31;68762;51.980;5.646;2023-10-31T10:24:42;14.7;73.7
79187;SHT31;68762;51.980;5.646;2023-10-31T10:27:13;14.7;73.7
79187;SHT31;68762;51.980;5.646;2023-10-31T10:29:41;14.8;73.4
79187;SHT31;68762;51.980;5.646;2023-10-31T10:32:11;14.8;73.9
79187;SHT31;68762;51.980;5.646;2023-10-31T10:34:42;14.9;73.4
79187;SHT31;68762;51.980;5.646;2023-10-31T10:37:11;14.9;73.6
79187;SHT31;68762;51.980;5.646;2023-10-31T10:39:40;15.0;74.2
79187;SHT31;68762;51.980;5.646;2023-10-31T10:42:11;15.1;73.3
79187;SHT31;68762;51.980;5.646;2023-10-31T10:44:45;15.1;72.6
79187;SHT31;68762;51.980;5.646;2023-10-31T10:47:18;15.2;74.0
79187;SHT31;68762;51.980;5.646;2023-10-31T10:49:50;15.3;72.2
79187;SHT31;68762;51.980;5.646;2023-10-31T10:52:23;15.3;72.1
79187;SHT31;68762;51.980;5.646;2023-10-31T10:55:03;15.4;72.0
79187;SHT31;68762;51.980;5.646;2023-10-31T10:57:38;15.4;72.2
79187;SHT31;68762;51.980;5.646;2023-10-31T11:00:09;15.5;72.6
79187;SHT31;68762;51.980;5.646;2023-10-31T11:02:40;15.6;72.2
79187;SHT31;68762;51.980;5.646;2023-10-31T11:05:10;16.0;71.1
79187;SHT31;68762;51.980;5.646;2023-10-31T11:07:40;16.6;68.4
79187;SHT31;68762;51.980;5.646;2023-10-31T11:10:10;17.0;65.2
79187;SHT31;68762;51.980;5.646;2023-10-31T11:12:40;17.1;64.8
79187;SHT31;68762;51.980;5.646;2023-10-31T11:15:12;17.1;63.5
79187;SHT31;68762;51.980;5.646;2023-10-31T11:17:43;17.0;63.8
79187;SHT31;68762;51.980;5.646;2023-10-31T11:20:14;17.0;65.0
79187;SHT31;68762;51.980;5.646;2023-10-31T11:22:44;16.9;65.6
79187;SHT31;68762;51.980;5.646;2023-10-31T11:25:18;16.9;66.2
79187;SHT31;68762;51.980;5.646;2023-10-31T11:27:49;16.8;66.9
79187;SHT31;68762;51.980;5.646;2023-10-31T11:30:29;16.8;65.9
79187;SHT31;68762;51.980;5.646;2023-10-31T11:32:59;16.9;66.4
79187;SHT31;68762;51.980;5.646;2023-10-31T11:35:29;16.9;67.0
79187;SHT31;68762;51.980;5.646;2023-10-31T11:38:04;17.1;66.4
79187;SHT31;68762;51.980;5.646;2023-10-31T11:40:33;17.3;64.3
79187;SHT31;68762;51.980;5.646;2023-10-31T11:43:06;17.4;62.6
79187;SHT31;68762;51.980;5.646;2023-10-31T11:45:37;17.4;62.7
79187;SHT31;68762;51.980;5.646;2023-10-31T11:48:10;17.3;62.3
79187;SHT31;68762;51.980;5.646;2023-10-31T11:50:40;17.3;62.8
79187;SHT31;68762;51.980;5.646;2023-10-31T11:53:10;17.3;63.1
79187;SHT31;68762;51.980;5.646;2023-10-31T11:55:42;17.3;63.2
79187;SHT31;68762;51.980;5.646;2023-10-31T11:58:19;17.3;63.4
79187;SHT31;68762;51.980;5.646;2023-10-31T12:00:50;17.4;61.8
79187;SHT31;68762;51.980;5.646;2023-10-31T12:03:20;17.5;61.3
79187;SHT31;68762;51.980;5.646;2023-10-31T12:05:57;17.5;61.1
79187;SHT31;68762;51.980;5.646;2023-10-31T12:08:30;17.5;61.0
79187;SHT31;68762;51.980;5.646;2023-10-31T12:11:10;17.4;60.7
79187;SHT31;68762;51.980;5.646;2023-10-31T12:13:42;17.3;61.6
79187;SHT31;68762;51.980;5.646;2023-10-31T12:16:11;17.2;62.2
79187;SHT31;68762;51.980;5.646;2023-10-31T12:18:39;17.1;62.2
79187;SHT31;68762;51.980;5.646;2023-10-31T12:21:08;17.0;62.8
79187;SHT31;68762;51.980;5.646;2023-10-31T12:23:40;16.9;63.3
79187;SHT31;68762;51.980;5.646;2023-10-31T12:26:09;16.8;63.7
79187;SHT31;68762;51.980;5.646;2023-10-31T12:28:38;16.7;63.5
79187;SHT31;68762;51.980;5.646;2023-10-31T12:31:06;16.7;64.3
79187;SHT31;68762;51.980;5.646;2023-10-31T12:33:35;16.6;64.1
79187;SHT31;68762;51.980;5.646;2023-10-31T12:36:05;16.5;64.6
79187;SHT31;68762;51.980;5.646;2023-10-31T12:38:34;16.5;64.6
79187;SHT31;68762;51.980;5.646;2023-10-31T12:41:03;16.4;65.0
79187;SHT31;68762;51.980;5.646;2023-10-31T12:43:32;16.4;65.7
79187;SHT31;68762;51.980;5.646;2023-10-31T12:46:28;16.4;65.6
79187;SHT31;68762;51.980;5.646;2023-10-31T12:48:58;16.3;65.2
79187;SHT31;68762;51.980;5.646;2023-10-31T12:51:27;16.3;65.9
79187;SHT31;68762;51.980;5.646;2023-10-31T12:53:55;16.2;65.9
79187;SHT31;68762;51.980;5.646;2023-10-31T12:56:36;16.2;65.7
79187;SHT31;68762;51.980;5.646;2023-10-31T12:59:06;16.1;66.7
79187;SHT31;68762;51.980;5.646;2023-10-31T13:01:36;16.1;66.7
79187;SHT31;68762;51.980;5.646;2023-10-31T13:04:10;16.1;67.2
79187;SHT31;68762;51.980;5.646;2023-10-31T13:06:40;16.1;67.4
79187;SHT31;68762;51.980;5.646;2023-10-31T13:09:11;16.1;66.8
79187;SHT31;68762;51.980;5.646;2023-10-31T13:11:41;16.1;66.2
79187;SHT31;68762;51.980;5.646;2023-10-31T13:14:09;16.1;65.9
79187;SHT31;68762;51.980;5.646;2023-10-31T13:16:38;16.1;66.4
79187;SHT31;68762;51.980;5.646;2023-10-31T13:19:06;16.1;66.1
79187;SHT31;68762;51.980;5.646;2023-10-31T13:21:35;16.0;66.3
79187;SHT31;68762;51.980;5.646;2023-10-31T13:24:06;16.0;66.0
79187;SHT31;68762;51.980;5.646;2023-10-31T13:26:36;16.0;65.9
79187;SHT31;68762;51.980;5.646;2023-10-31T13:29:05;16.0;66.1
79187;SHT31;68762;51.980;5.646;2023-10-31T13:31:33;15.9;65.9
79187;SHT31;68762;51.980;5.646;2023-10-31T13:34:03;15.9;65.9
79187;SHT31;68762;51.980;5.646;2023-10-31T13:36:32;15.9;65.3
79187;SHT31;68762;51.980;5.646;2023-10-31T13:39:03;15.8;64.6
79187;SHT31;68762;51.980;5.646;2023-10-31T13:41:32;15.8;65.1
79187;SHT31;68762;51.980;5.646;2023-10-31T13:44:00;15.8;65.3
79187;SHT31;68762;51.980;5.646;2023-10-31T13:46:30;15.7;65.6
79187;SHT31;68762;51.980;5.646;2023-10-31T13:48:58;15.7;65.1
79187;SHT31;68762;51.980;5.646;2023-10-31T13:51:27;15.7;65.4
79187;SHT31;68762;51.980;5.646;2023-10-31T13:53:55;15.7;64.5
79187;SHT31;68762;51.980;5.646;2023-10-31T13:56:24;15.6;65.1
79187;SHT31;68762;51.980;5.646;2023-10-31T13:58:53;15.6;64.6
79187;SHT31;68762;51.980;5.646;2023-10-31T14:01:21;15.6;65.3
79187;SHT31;68762;51.980;5.646;2023-10-31T14:03:51;15.5;65.5
79187;SHT31;68762;51.980;5.646;2023-10-31T14:06:22;15.5;65.2
79187;SHT31;68762;51.980;5.646;2023-10-31T14:08:55;15.5;65.8
79187;SHT31;68762;51.980;5.646;2023-10-31T14:11:24;15.5;65.7
79187;SHT31;68762;51.980;5.646;2023-10-31T14:13:54;15.5;65.8
79187;SHT31;68762;51.980;5.646;2023-10-31T14:16:26;15.5;66.0
79187;SHT31;68762;51.980;5.646;2023-10-31T14:18:56;15.5;66.2
79187;SHT31;68762;51.980;5.646;2023-10-31T14:21:24;15.5;66.1
79187;SHT31;68762;51.980;5.646;2023-10-31T14:23:53;15.5;66.3
79187;SHT31;68762;51.980;5.646;2023-10-31T14:26:23;15.5;66.6
79187;SHT31;68762;51.980;5.646;2023-10-31T14:28:51;15.5;66.7
79187;SHT31;68762;51.980;5.646;2023-10-31T14:31:20;15.5;67.2
79187;SHT31;68762;51.980;5.646;2023-10-31T14:33:49;15.5;67.3
79187;SHT31;68762;51.980;5.646;2023-10-31T14:36:19;15.5;67.6
79187;SHT31;68762;51.980;5.646;2023-10-31T14:38:49;15.5;66.5
79187;SHT31;68762;51.980;5.646;2023-10-31T14:41:20;15.5;65.8
79187;SHT31;68762;51.980;5.646;2023-10-31T14:43:50;15.5;65.5
79187;SHT31;68762;51.980;5.646;2023-10-31T14:46:19;15.4;65.7
79187;SHT31;68762;51.980;5.646;2023-10-31T14:48:47;15.4;66.0
79187;SHT31;68762;51.980;5.646;2023-10-31T14:51:16;15.4;66.3
79187;SHT31;68762;51.980;5.646;2023-10-31T14:53:45;15.4;65.9
79187;SHT31;68762;51.980;5.646;2023-10-31T14:56:13;15.3;65.3
79187;SHT31;68762;51.980;5.646;2023-10-31T14:58:42;15.3;65.7
79187;SHT31;68762;51.980;5.646;2023-10-31T15:01:10;15.3;66.7
79187;SHT31;68762;51.980;5.646;2023-10-31T15:03:39;15.3;65.9
79187;SHT31;68762;51.980;5.646;2023-10-31T15:06:08;15.3;65.8
79187;SHT31;68762;51.980;5.646;2023-10-31T15:08:36;15.2;66.1
79187;SHT31;68762;51.980;5.646;2023-10-31T15:11:05;15.2;66.5
79187;SHT31;68762;51.980;5.646;2023-10-31T15:13:34;15.2;66.7
79187;SHT31;68762;51.980;5.646;2023-10-31T15:16:02;15.2;67.2
79187;SHT31;68762;51.980;5.646;2023-10-31T15:18:31;15.1;67.7
79187;SHT31;68762;51.980;5.646;2023-10-31T15:20:59;15.1;67.9
79187;SHT31;68762;51.980;5.646;2023-10-31T15:23:28;15.0;68.0
79187;SHT31;68762;51.980;5.646;2023-10-31T15:25:58;15.0;68.7
79187;SHT31;68762;51.980;5.646;2023-10-31T15:28:27;14.9;69.0
79187;SHT31;68762;51.980;5.646;2023-10-31T15:30:55;14.9;69.1
79187;SHT31;68762;51.980;5.646;2023-10-31T15:33:24;14.8;69.3
79187;SHT31;68762;51.980;5.646;2023-10-31T15:35:52;14.8;68.9
79187;SHT31;68762;51.980;5.646;2023-10-31T15:38:21;14.7;69.4
79187;SHT31;68762;51.980;5.646;2023-10-31T15:40:50;14.7;69.3
79187;SHT31;68762;51.980;5.646;2023-10-31T15:43:18;14.6;69.8
79187;SHT31;68762;51.980;5.646;2023-10-31T15:45:47;14.5;70.1
79187;SHT31;68762;51.980;5.646;2023-10-31T15:48:17;14.5;71.0
79187;SHT31;68762;51.980;5.646;2023-10-31T15:50:48;14.4;71.0
79187;SHT31;68762;51.980;5.646;2023-10-31T15:53:17;14.4;71.8
79187;SHT31;68762;51.980;5.646;2023-10-31T15:55:46;14.3;72.2
79187;SHT31;68762;51.980;5.646;2023-10-31T15:58:15;14.2;72.4
79187;SHT31;68762;51.980;5.646;2023-10-31T16:00:44;14.2;72.7
79187;SHT31;68762;51.980;5.646;2023-10-31T16:03:12;14.2;72.7
79187;SHT31;68762;51.980;5.646;2023-10-31T16:05:41;14.1;73.2
79187;SHT31;68762;51.980;5.646;2023-10-31T16:08:10;14.1;73.4
79187;SHT31;68762;51.980;5.646;2023-10-31T16:10:39;14.1;73.4
79187;SHT31;68762;51.980;5.646;2023-10-31T16:13:07;14.1;73.7
79187;SHT31;68762;51.980;5.646;2023-10-31T16:15:36;14.0;73.9